Plainfield, Ohio
Current Conditions -  °F | °C
As of 4:53 AM on Thursday 29 Jan 2015 (Local Time) from KZZV Reporting Station
Clear Clear  
Wind Chill: 16°   Ceiling: Unl
Heat Index: 26°   Visibility: 10mi
Dew Point: 15°   Wind: 12mph
Humidity: 63%   Direction: 160°SSE
Pressure: 30.07"   Gusts: NA
Location:  40.21°N, 81.72°W
Report Text: KZZV 290953Z AUTO 16010KT 10SM CLR M03/M09 A3007 RMK AO2 SLP194 T10331094
Loading
Personal Weather Stations






























Interactive Weather Map New forecast layout! Learn more

10-Day Weather Forecast

Advertisements
Track Severe Weather on mobile